Saturday, October 20, 2018, 9:35 PM EDT
Back to Local

KCEF, Chicopee Falls / Westover Air Force Base

Location: Chicopee, MA, United States Lat: 42.2
Local Time: 9:35 PM EDT ( 1:35 GMT) Lon: -72.533
Time Zone: US/Eastern Elev: 246 ft

Show me the last for .
Show Coded

Time T Td Feel RH Dir Speed Gust Alt SLP Vis Weather Sky Remarks
2018-10-20 20:56 44 42 - 92 - Calm - 29.58 29.60 10 BKN090 None
2018-10-20 19:56 46 43 44 90 150° 3 - 29.58 29.60 10 SCT070 BKN090 6-hr Precip Total (8pm): 0.01"
6-hr Min Temp (8pm): 45.1°F
6-hr Max Temp (8pm): 63.0°F
2018-10-20 18:56 48 44 46 87 170° 5 - 29.58 29.60 10 SCT090 None
2018-10-20 17:56 54 45 - 71 250° 8 - 29.57 29.59 10 SCT070 OVC095 None
2018-10-20 16:56 55 44 - 67 270° 9 - 29.58 29.60 10 FEW055 BKN090 1-hr Precip Total: 0.01"
6-hr Precip Total (5pm): 0.01"
2018-10-20 16:31 54 45 - 71 270° 7 - 29.58 29.60 10 SCT055 BKN090 None
2018-10-20 15:56 54 42 - 63 300° 15 - 29.58 29.60 10 -RA BKN040 OVC050 1-hr Precip Total: Trace
2018-10-20 15:53 55 43 - 62 300° 16 - 29.58 29.60 10 -RA BKN040 OVC050 None
2018-10-20 15:16 54 46 - 76 320° 10 - 29.58 29.60 10 BKN041 BKN055 None
2018-10-20 14:59 59 46 - 62 310° 15 - 29.58 29.60 10 -RA BKN045 BKN075 None
2018-10-20 14:56 61 44 - 54 320° 14 18 29.58 29.60 10 SCT045 BKN075 None
2018-10-20 13:56 61 44 - 52 250° 15 20 29.59 29.61 10 SCT030 BKN060 6-hr Min Temp (2pm): 52.5°F
6-hr Max Temp (2pm): 61.9°F
2018-10-20 12:56 61 45 - 54 260° 14 - 29.61 29.63 10 SCT035 BKN045 BKN055 None
2018-10-20 11:56 61 47 - 59 240° 16 - 29.63 29.65 10 SCT025 BKN040 None
2018-10-20 10:56 59 48 - 65 220° 16 - 29.65 29.67 10 SCT025 BKN041 None
2018-10-20 10:26 57 48 - 71 230° 16 25 29.66 29.68 10 FEW020 BKN030 BKN048 None
2018-10-20 09:56 56 48 - 75 220° 15 - 29.66 29.68 10 SCT018 BKN027 BKN070 None
2018-10-20 09:25 55 48 - 76 210° 15 23 29.66 29.68 10 SCT020 BKN027 BKN070 None
2018-10-20 08:56 54 47 - 78 210° 15 - 29.66 29.68 10 FEW023 SCT043 BKN070 None
2018-10-20 08:37 54 46 - 76 200° 15 - 29.67 29.69 10 SCT027 BKN041 OVC070 None
2018-10-20 07:56 53 47 - 80 210° 14 24 29.68 29.70 10 BKN024 OVC060 6-hr Precip Total (8am): 0.01"
24-hr Precip Total (8am): 0.01"
6-hr Min Temp (8am): 50.4°F
6-hr Max Temp (8am): 53.1°F
2018-10-20 06:56 52 46 - 80 200° 16 24 29.66 29.68 10 FEW023 BKN050 BKN060 None
2018-10-20 05:56 52 46 - 80 200° 17 - 29.68 29.70 10 SCT046 OVC055 None
2018-10-20 04:56 51 46 - 82 200° 10 - 29.70 29.72 10 OVC070 1-hr Precip Total: Trace
6-hr Precip Total (5am): 0.01"
2018-10-20 04:51 50 46 46 87 190° 10 - 29.70 29.72 10 OVC070 None
2018-10-20 04:47 50 46 46 87 190° 10 - 29.70 29.72 10 -DZ OVC070 None
2018-10-20 04:45 50 46 46 87 180° 10 - 29.69 29.71 10 OVC070 None
2018-10-20 03:56 51 45 - 78 190° 13 - 29.71 29.73 10 -RA OVC080 Pressure falling rapidly
1-hr Precip Total: 0.01"
2018-10-20 03:28 54 43 - 66 200° 12 - 29.74 29.76 10 -RA BKN080 OVC095 None
2018-10-20 02:56 53 42 - 67 200° 10 - 29.77 29.79 10 BKN095 OVC120 None
2018-10-20 01:56 53 42 - 67 200° 14 - 29.80 29.82 10 OVC120 6-hr Min Temp (2am): 50.0°F
6-hr Max Temp (2am): 52.7°F
2018-10-20 00:56 52 41 - 66 200° 15 - 29.81 29.83 10 BKN110 OVC140 24-hr Min Temp (1am): 28.4°F
24-hr Max Temp (1am): 60.8°F
2018-10-19 23:56 51 39 - 64 200° 9 - 29.86 29.88 10 OVC160 None
2018-10-19 22:56 51 37 - 58 200° 10 - 29.89 29.91 10 SCT140 OVC170 None
2018-10-19 21:56 51 35 - 54 190° 10 - 29.91 29.93 10 BKN170 OVC210 None

Support USWX by starting your Amazon purchase here.